KALX/ALX METAR and TAF weather

Enter ICAO airport designator
Station Type Date Time Source
KALX METAR 2019/02/23 17:15 UTC NOAA

KALX 231715Z AUTO 12005KT 10SM OVC007 18/16 A3008 RMK AO2 T01830161


Station Type Date Time Source
KALX Decoded METAR 2019/02/23 17:15 UTC NOAA

Alexander City, Thomas C Russell Field Airport, AL, United States (KALX) 32-54-53N 085-57-46W
Feb 23, 2019 - 12:15 PM EST / 2019.02.23 1715 UTC
Wind: from the ESE (120 degrees) at 6 MPH (5 KT):0
Visibility: 10 mile(s):0
Sky conditions: overcast
Temperature: 64.9 F (18.3 C)
Dew Point: 61.0 F (16.1 C)
Relative Humidity: 86%
Pressure (altimeter): 30.08 in. Hg (1018 hPa)
ob: KALX 231715Z AUTO 12005KT 10SM OVC007 18/16 A3008 RMK AO2 T01830161
cycle: 17

Station Type Date Time Source
KALX TAF UTC NOAA

Error!


Example: see airport list